createdAt,value
2024-05-09T00:01:16.362Z,5.88
2024-05-09T00:02:48.489Z,5.60
2024-05-09T00:04:20.538Z,5.97
2024-05-09T00:05:52.799Z,5.60
2024-05-09T00:07:24.819Z,5.63
2024-05-09T00:08:56.853Z,5.82
2024-05-09T00:10:35.586Z,6.03
2024-05-09T00:12:10.267Z,5.47
2024-05-09T00:13:42.648Z,5.75
2024-05-09T00:15:14.816Z,5.43
2024-05-09T00:16:49.515Z,5.82
2024-05-09T00:18:21.754Z,5.40
2024-05-09T00:19:53.993Z,5.78
2024-05-09T00:21:26.062Z,6.28
2024-05-09T00:22:58.123Z,5.95
2024-05-09T00:24:30.209Z,5.57
2024-05-09T00:26:02.322Z,5.50
2024-05-09T00:27:35.679Z,5.53
2024-05-09T00:29:07.766Z,5.65
2024-05-09T00:30:40.003Z,5.85
2024-05-09T00:32:12.315Z,6.35
2024-05-09T00:33:44.608Z,5.85
2024-05-09T00:35:16.844Z,6.15
2024-05-09T00:36:48.958Z,5.72
2024-05-09T00:38:21.151Z,6.03
2024-05-09T00:39:53.335Z,5.90
2024-05-09T00:41:25.439Z,6.30
2024-05-09T00:42:57.523Z,6.13
2024-05-09T00:44:29.726Z,5.35
2024-05-09T00:46:02.520Z,5.70
2024-05-09T00:47:34.808Z,6.10
2024-05-09T00:49:07.296Z,6.13
2024-05-09T00:50:42.403Z,5.85
2024-05-09T00:52:14.641Z,5.38
2024-05-09T00:53:47.311Z,5.70
2024-05-09T00:55:19.858Z,5.93
2024-05-09T00:56:53.425Z,5.88
2024-05-09T00:58:28.941Z,5.63
2024-05-09T01:00:01.598Z,6.00
2024-05-09T01:01:35.202Z,5.03
2024-05-09T01:03:12.536Z,5.75
2024-05-09T01:04:46.245Z,6.20
2024-05-09T01:06:21.366Z,6.30
2024-05-09T01:07:53.550Z,6.30
2024-05-09T01:09:25.626Z,6.38
2024-05-09T01:10:57.914Z,6.10
2024-05-09T01:12:30.019Z,5.88
2024-05-09T01:14:02.231Z,6.32
2024-05-09T01:15:35.645Z,5.82
2024-05-09T01:17:08.605Z,5.80
2024-05-09T01:18:41.011Z,5.75
2024-05-09T01:20:19.995Z,6.35
2024-05-09T01:21:59.367Z,6.20
2024-05-09T01:23:31.589Z,5.60
2024-05-09T01:25:04.017Z,6.47
2024-05-09T01:26:36.146Z,6.32
2024-05-09T01:28:08.278Z,6.68
2024-05-09T01:29:40.355Z,6.05
2024-05-09T01:31:15.826Z,6.20
2024-05-09T01:32:47.989Z,5.75
2024-05-09T01:34:20.204Z,5.68
2024-05-09T01:35:52.378Z,5.95
2024-05-09T01:37:24.362Z,6.20
2024-05-09T01:38:56.562Z,6.05
2024-05-09T01:40:36.653Z,6.18
2024-05-09T01:42:11.447Z,5.80
2024-05-09T01:43:43.559Z,6.53
2024-05-09T01:45:15.766Z,5.70
2024-05-09T01:46:47.803Z,5.65
2024-05-09T01:48:20.043Z,6.13
2024-05-09T01:49:52.232Z,6.38
2024-05-09T01:51:24.389Z,6.32
2024-05-09T01:52:56.475Z,6.47
2024-05-09T01:54:28.714Z,6.38
2024-05-09T01:56:00.910Z,6.10
2024-05-09T01:57:33.136Z,5.97
2024-05-09T01:59:06.756Z,6.57
2024-05-09T02:00:42.287Z,5.80
2024-05-09T02:02:15.671Z,6.55
2024-05-09T02:03:48.194Z,5.88
2024-05-09T02:05:20.426Z,6.25
2024-05-09T02:06:52.508Z,6.45
2024-05-09T02:08:24.620Z,5.70
2024-05-09T02:09:56.712Z,6.30
2024-05-09T02:11:28.753Z,6.15
2024-05-09T02:13:01.139Z,6.35
2024-05-09T02:14:33.310Z,6.50
2024-05-09T02:16:11.721Z,6.20
2024-05-09T02:17:44.099Z,6.13
2024-05-09T02:19:16.662Z,6.47
2024-05-09T02:20:49.009Z,6.20
2024-05-09T02:22:21.166Z,6.22
2024-05-09T02:23:53.168Z,6.10
2024-05-09T02:25:27.036Z,7.10
2024-05-09T02:26:59.030Z,5.80
2024-05-09T02:28:31.144Z,7.18
2024-05-09T02:30:04.692Z,6.82
2024-05-09T02:31:39.855Z,5.97
2024-05-09T02:33:14.018Z,6.60
2024-05-09T02:34:46.761Z,6.32
2024-05-09T02:36:18.812Z,5.90
2024-05-09T02:37:50.922Z,7.30
2024-05-09T02:39:23.064Z,5.82
2024-05-09T02:40:55.168Z,6.38
2024-05-09T02:42:27.227Z,5.93
2024-05-09T02:43:59.295Z,6.05
2024-05-09T02:45:31.391Z,5.60
2024-05-09T02:47:03.647Z,6.05
2024-05-09T02:48:35.758Z,5.88
2024-05-09T02:50:08.443Z,5.88
2024-05-09T02:51:40.531Z,6.85
2024-05-09T02:53:14.062Z,6.43
2024-05-09T02:54:46.431Z,6.18
2024-05-09T02:56:18.532Z,6.32
2024-05-09T02:57:50.569Z,7.25
2024-05-09T02:59:22.951Z,7.05
2024-05-09T03:00:55.113Z,7.07
2024-05-09T03:02:27.251Z,6.05
2024-05-09T03:03:59.486Z,6.55
2024-05-09T03:05:32.043Z,6.70
2024-05-09T03:07:04.511Z,7.07
2024-05-09T03:08:36.653Z,6.47
2024-05-09T03:10:18.163Z,7.15
2024-05-09T03:11:54.715Z,6.28
2024-05-09T03:13:26.836Z,6.13
2024-05-09T03:14:58.884Z,6.75
2024-05-09T03:16:30.889Z,6.70
2024-05-09T03:18:04.190Z,6.78
2024-05-09T03:19:37.346Z,6.55
2024-05-09T03:21:09.831Z,7.13
2024-05-09T03:22:41.956Z,7.85
2024-05-09T03:24:13.984Z,8.98
2024-05-09T03:25:46.025Z,8.07
2024-05-09T03:27:18.277Z,8.45
2024-05-09T03:28:50.390Z,8.10
2024-05-09T03:30:35.796Z,8.20
2024-05-09T03:32:13.105Z,7.63
2024-05-09T03:33:45.541Z,8.88
2024-05-09T03:35:17.684Z,9.57
2024-05-09T03:36:49.802Z,8.60
2024-05-09T03:38:21.875Z,8.38
2024-05-09T03:39:54.089Z,9.30
2024-05-09T03:41:26.198Z,8.88
2024-05-09T03:42:58.778Z,9.00
2024-05-09T03:44:30.920Z,9.48
2024-05-09T03:46:03.132Z,8.43
2024-05-09T03:47:35.584Z,10.48
2024-05-09T03:49:08.183Z,9.60
2024-05-09T03:50:40.989Z,9.40
2024-05-09T03:52:13.135Z,9.43
2024-05-09T03:53:45.171Z,9.00
2024-05-09T03:55:17.342Z,9.70
2024-05-09T03:56:49.380Z,9.80
2024-05-09T03:58:21.507Z,9.35
2024-05-09T03:59:53.510Z,8.77
2024-05-09T04:01:25.830Z,9.40
2024-05-09T04:02:59.821Z,10.13
2024-05-09T04:04:32.289Z,9.23
2024-05-09T04:06:04.852Z,9.18
2024-05-09T04:07:38.022Z,9.35
2024-05-09T04:09:10.025Z,9.98
2024-05-09T04:10:42.181Z,9.55
2024-05-09T04:12:14.291Z,9.60
2024-05-09T04:13:46.396Z,9.07
2024-05-09T04:15:18.492Z,10.15
2024-05-09T04:16:50.714Z,9.65
2024-05-09T04:18:22.856Z,9.77
2024-05-09T04:19:55.612Z,9.63
2024-05-09T04:21:28.195Z,10.10
2024-05-09T04:23:00.343Z,9.32
2024-05-09T04:24:32.385Z,9.30
2024-05-09T04:26:05.066Z,10.13
2024-05-09T04:27:37.228Z,9.15
2024-05-09T04:29:09.312Z,9.90
2024-05-09T04:30:42.287Z,9.85
2024-05-09T04:32:14.946Z,9.48
2024-05-09T04:33:47.093Z,9.38
2024-05-09T04:35:21.097Z,10.02
2024-05-09T04:36:53.203Z,9.32
2024-05-09T04:38:25.383Z,9.63
2024-05-09T04:39:57.687Z,10.15
2024-05-09T04:41:30.491Z,9.90
2024-05-09T04:43:03.592Z,9.80
2024-05-09T04:44:35.690Z,9.50
2024-05-09T04:46:07.722Z,10.00
2024-05-09T04:47:39.915Z,8.88
2024-05-09T04:49:12.334Z,10.43
2024-05-09T04:50:44.553Z,10.25
2024-05-09T04:52:16.722Z,9.52
2024-05-09T04:53:48.926Z,10.50
2024-05-09T04:55:21.021Z,10.70
2024-05-09T04:56:53.431Z,10.07
2024-05-09T04:58:25.453Z,10.55
2024-05-09T04:59:58.987Z,10.00
2024-05-09T05:01:31.033Z,9.80
2024-05-09T05:03:10.217Z,10.23
2024-05-09T05:04:44.488Z,9.68
2024-05-09T05:06:16.725Z,11.13
2024-05-09T05:07:48.827Z,9.48
2024-05-09T05:09:20.874Z,9.60
2024-05-09T05:10:53.065Z,9.82
2024-05-09T05:12:48.591Z,8.65
2024-05-09T05:14:20.706Z,8.93
2024-05-09T05:15:56.941Z,9.55
2024-05-09T05:17:30.357Z,10.30
2024-05-09T05:19:02.742Z,10.32
2024-05-09T05:20:34.896Z,9.75
2024-05-09T05:22:07.043Z,9.57
2024-05-09T05:23:40.994Z,9.73
2024-05-09T05:25:13.154Z,10.00
2024-05-09T05:26:45.257Z,9.52
2024-05-09T05:28:17.532Z,8.98
2024-05-09T05:29:49.666Z,9.23
2024-05-09T05:31:21.818Z,8.85
2024-05-09T05:32:54.010Z,9.77
2024-05-09T05:34:26.110Z,8.35
2024-05-09T05:35:58.144Z,8.45
2024-05-09T05:37:30.234Z,8.05
2024-05-09T05:39:02.289Z,8.63
2024-05-09T05:40:40.352Z,8.60
2024-05-09T05:42:13.011Z,8.10
2024-05-09T05:43:45.149Z,9.23
2024-05-09T05:45:17.165Z,8.57
2024-05-09T05:46:49.316Z,8.82
2024-05-09T05:48:21.562Z,8.00
2024-05-09T05:49:53.740Z,8.15
2024-05-09T05:51:27.005Z,9.13
2024-05-09T05:52:59.078Z,8.00
2024-05-09T05:54:31.138Z,8.73
2024-05-09T05:56:04.403Z,8.27
2024-05-09T05:57:36.515Z,7.93
2024-05-09T05:59:08.548Z,8.02
2024-05-09T06:00:42.096Z,8.57
2024-05-09T06:02:14.822Z,7.65
2024-05-09T06:03:47.197Z,8.02
2024-05-09T06:05:19.538Z,8.80
2024-05-09T06:06:52.554Z,7.70
2024-05-09T06:08:27.119Z,8.70
2024-05-09T06:10:00.916Z,8.27
2024-05-09T06:11:33.103Z,8.75
2024-05-09T06:13:05.287Z,7.45
2024-05-09T06:14:37.565Z,8.10
2024-05-09T06:16:09.694Z,8.10
2024-05-09T06:17:41.885Z,8.15
2024-05-09T06:19:14.150Z,8.52
2024-05-09T06:20:46.307Z,8.95
2024-05-09T06:22:18.468Z,7.95
2024-05-09T06:23:50.669Z,8.43
2024-05-09T06:25:23.303Z,9.07
2024-05-09T06:26:55.358Z,8.35
2024-05-09T06:28:27.336Z,7.60
2024-05-09T06:29:59.394Z,8.85
2024-05-09T06:31:31.463Z,7.53
2024-05-09T06:33:05.966Z,8.40
2024-05-09T06:34:38.361Z,8.07
2024-05-09T06:36:10.520Z,7.82
2024-05-09T06:37:42.552Z,8.07
2024-05-09T06:39:14.738Z,8.35
2024-05-09T06:40:46.841Z,8.05
2024-05-09T06:42:18.911Z,8.48
2024-05-09T06:43:51.024Z,7.75
2024-05-09T06:45:23.262Z,8.27
2024-05-09T06:46:58.062Z,8.02
2024-05-09T06:48:31.710Z,8.75
2024-05-09T06:50:08.212Z,8.60
2024-05-09T06:51:42.481Z,7.38
2024-05-09T06:53:15.528Z,7.63
2024-05-09T06:54:47.657Z,7.30
2024-05-09T06:56:19.743Z,7.53
2024-05-09T06:57:51.815Z,7.35
2024-05-09T06:59:23.884Z,6.88
2024-05-09T07:00:55.972Z,7.65
2024-05-09T07:02:28.121Z,7.70
2024-05-09T07:04:00.330Z,7.57
2024-05-09T07:05:33.235Z,7.65
2024-05-09T07:07:07.395Z,7.65
2024-05-09T07:08:39.544Z,7.05
2024-05-09T07:10:21.582Z,8.00
2024-05-09T07:11:57.642Z,7.90
2024-05-09T07:13:29.745Z,7.80
2024-05-09T07:15:01.792Z,7.97
2024-05-09T07:16:34.395Z,7.95
2024-05-09T07:18:20.598Z,7.93
2024-05-09T07:19:53.533Z,6.80
2024-05-09T07:21:26.020Z,7.20
2024-05-09T07:22:58.668Z,8.45
2024-05-09T07:24:30.888Z,7.32
2024-05-09T07:26:02.946Z,7.45
2024-05-09T07:27:35.206Z,8.68
2024-05-09T07:29:07.325Z,8.65
2024-05-09T07:30:39.484Z,7.88
2024-05-09T07:32:11.662Z,8.52
2024-05-09T07:33:43.853Z,8.45
2024-05-09T07:35:16.150Z,8.55
2024-05-09T07:36:48.260Z,8.80
2024-05-09T07:38:20.483Z,8.77
2024-05-09T07:39:52.541Z,8.95
2024-05-09T07:41:24.678Z,9.18
2024-05-09T07:42:56.679Z,8.68
2024-05-09T07:44:30.393Z,9.45
2024-05-09T07:48:29.177Z,8.23
2024-05-09T07:50:53.878Z,6.75
2024-05-09T07:53:33.931Z,7.47
2024-05-09T07:54:31.036Z,7.43
2024-05-09T07:56:03.613Z,8.02
2024-05-09T07:57:35.942Z,7.55
2024-05-09T07:59:08.066Z,7.50
2024-05-09T08:00:40.198Z,6.53
2024-05-09T08:02:12.532Z,6.82
2024-05-09T08:03:45.126Z,6.20
2024-05-09T08:05:17.466Z,5.78
2024-05-09T08:06:49.604Z,4.95
2024-05-09T08:08:23.388Z,4.53
2024-05-09T08:09:55.530Z,3.90
2024-05-09T08:11:27.789Z,3.20
2024-05-09T08:12:59.833Z,4.05
2024-05-09T08:14:32.063Z,2.97
2024-05-09T08:16:04.732Z,3.38
2024-05-09T08:17:36.942Z,3.05
2024-05-09T08:19:09.126Z,2.90
2024-05-09T08:20:42.283Z,2.80
2024-05-09T08:22:15.276Z,2.88
2024-05-09T08:23:47.383Z,3.20
2024-05-09T08:25:19.500Z,3.10
2024-05-09T08:26:51.593Z,3.58
2024-05-09T08:28:23.792Z,2.92
2024-05-09T08:29:55.900Z,3.10
2024-05-09T08:31:27.997Z,3.28
2024-05-09T08:33:00.103Z,2.92
2024-05-09T08:34:32.173Z,3.45
2024-05-09T08:36:04.464Z,3.00
2024-05-09T08:37:38.920Z,3.22
2024-05-09T08:39:12.523Z,2.90
2024-05-09T08:40:44.756Z,3.00
2024-05-09T08:42:21.053Z,2.65
2024-05-09T08:43:53.071Z,2.70
2024-05-09T08:45:26.593Z,2.97
2024-05-09T08:46:59.818Z,2.83
2024-05-09T08:48:36.318Z,2.70
2024-05-09T08:50:20.250Z,2.63
2024-05-09T08:52:01.151Z,2.70
2024-05-09T08:53:33.708Z,2.80
2024-05-09T08:55:06.437Z,2.80
2024-05-09T08:56:45.283Z,3.10
2024-05-09T08:58:19.368Z,2.58
2024-05-09T08:59:53.892Z,2.42
2024-05-09T09:01:30.932Z,2.13
2024-05-09T09:03:05.740Z,1.77
2024-05-09T09:04:43.009Z,1.73
2024-05-09T09:06:21.416Z,2.30
2024-05-09T09:07:53.456Z,2.10
2024-05-09T09:09:27.518Z,2.22
2024-05-09T09:10:59.818Z,2.55
2024-05-09T09:12:32.397Z,2.60
2024-05-09T09:14:04.464Z,2.90
2024-05-09T09:15:48.052Z,2.75
2024-05-09T09:17:20.152Z,3.00
2024-05-09T09:18:53.412Z,3.40
2024-05-09T09:20:34.159Z,2.83
2024-05-09T09:22:09.391Z,2.88
2024-05-09T09:23:41.564Z,3.05
2024-05-09T09:25:13.714Z,3.03
2024-05-09T09:26:57.415Z,2.28
2024-05-09T09:28:37.568Z,2.67
2024-05-09T09:30:22.927Z,3.08
2024-05-09T09:32:10.587Z,3.08
2024-05-09T09:33:43.325Z,2.92
2024-05-09T09:35:16.975Z,2.65
2024-05-09T09:38:24.154Z,3.53
2024-05-09T09:39:58.789Z,2.65
2024-05-09T09:43:08.051Z,2.70
2024-05-09T09:44:42.408Z,2.42
2024-05-09T09:46:19.412Z,2.90
2024-05-09T09:48:00.023Z,2.78
2024-05-09T09:49:36.851Z,2.72
2024-05-09T09:51:09.836Z,3.20
2024-05-09T09:52:41.918Z,2.88
2024-05-09T09:54:14.163Z,2.75
2024-05-09T09:55:48.190Z,3.10
2024-05-09T09:57:21.393Z,3.20
2024-05-09T09:58:56.272Z,2.65
2024-05-09T10:00:33.034Z,3.33
2024-05-09T10:02:06.302Z,3.03
2024-05-09T10:03:38.892Z,2.42
2024-05-09T10:05:11.583Z,2.80
2024-05-09T10:06:56.651Z,2.58
2024-05-09T10:08:29.851Z,2.13
2024-05-09T10:10:02.005Z,2.42
2024-05-09T10:11:42.073Z,2.65
2024-05-09T10:13:21.143Z,2.55
2024-05-09T10:14:54.664Z,2.75
2024-05-09T10:16:31.551Z,2.85
2024-05-09T10:18:07.344Z,2.58
2024-05-09T10:19:39.572Z,2.90
2024-05-09T10:21:19.643Z,3.05
2024-05-09T10:22:51.763Z,3.03
2024-05-09T10:24:24.402Z,3.10
2024-05-09T10:26:01.124Z,3.05
2024-05-09T10:27:33.976Z,3.05
2024-05-09T10:29:17.473Z,3.05
2024-05-09T10:31:03.283Z,3.42
2024-05-09T10:32:40.789Z,4.00
2024-05-09T10:34:34.545Z,3.45
2024-05-09T10:36:13.681Z,5.68
2024-05-09T10:37:46.529Z,3.60
2024-05-09T10:39:22.824Z,3.47
2024-05-09T10:40:57.140Z,3.83
2024-05-09T10:42:30.145Z,3.10
2024-05-09T10:44:02.258Z,3.85
2024-05-09T10:45:35.640Z,3.75
2024-05-09T10:47:07.919Z,3.15
2024-05-09T10:48:43.539Z,3.95
2024-05-09T10:50:22.576Z,3.58
2024-05-09T10:52:04.163Z,3.50
2024-05-09T10:53:43.463Z,7.18
2024-05-09T10:55:15.666Z,5.95
2024-05-09T10:56:56.845Z,4.72
2024-05-09T10:58:28.880Z,4.13
2024-05-09T11:00:01.741Z,4.60
2024-05-09T11:01:34.213Z,3.45
2024-05-09T11:03:06.541Z,3.22
2024-05-09T11:04:40.297Z,3.10
2024-05-09T11:06:14.252Z,2.90
2024-05-09T11:07:46.383Z,3.25
2024-05-09T11:09:18.516Z,2.95
2024-05-09T11:10:53.601Z,2.83
2024-05-09T11:12:26.582Z,3.08
2024-05-09T11:13:58.580Z,3.30
2024-05-09T11:15:40.394Z,3.28
2024-05-09T11:17:12.426Z,3.05
2024-05-09T11:18:52.300Z,3.50
2024-05-09T11:20:35.701Z,3.30
2024-05-09T11:22:08.384Z,3.13
2024-05-09T11:23:40.928Z,3.20
2024-05-09T11:25:13.294Z,3.90
2024-05-09T11:26:45.504Z,3.78
2024-05-09T11:28:21.939Z,2.90
2024-05-09T11:29:54.110Z,2.55
2024-05-09T11:31:26.278Z,2.80
2024-05-09T11:32:59.077Z,3.00
2024-05-09T11:34:31.323Z,2.85
2024-05-09T11:36:03.655Z,2.80
2024-05-09T11:37:37.854Z,2.95
2024-05-09T11:39:10.030Z,2.88
2024-05-09T11:40:42.405Z,2.70
2024-05-09T11:42:14.568Z,3.13
2024-05-09T11:43:46.603Z,3.05
2024-05-09T11:45:18.646Z,2.78
2024-05-09T11:46:50.811Z,3.22
2024-05-09T11:48:23.478Z,2.88
2024-05-09T11:49:58.779Z,2.65
2024-05-09T11:51:30.876Z,3.20
2024-05-09T11:53:03.170Z,2.70
2024-05-09T11:54:35.424Z,2.50
2024-05-09T11:56:07.759Z,2.60
2024-05-09T11:57:39.971Z,2.20
2024-05-09T11:59:12.096Z,2.47
2024-05-09T12:00:44.712Z,2.97
2024-05-09T12:02:17.572Z,2.60
2024-05-09T12:03:51.352Z,2.58
2024-05-09T12:05:23.581Z,2.60
2024-05-09T12:06:55.895Z,3.05
2024-05-09T12:08:28.334Z,2.67
2024-05-09T12:10:00.422Z,3.17
2024-05-09T12:11:32.698Z,3.65
2024-05-09T12:13:06.805Z,3.38
2024-05-09T12:14:39.997Z,3.40
2024-05-09T12:16:12.081Z,3.10
2024-05-09T12:17:45.211Z,2.85
2024-05-09T12:19:18.278Z,3.15
2024-05-09T12:20:50.451Z,2.63
2024-05-09T12:22:22.489Z,2.85
2024-05-09T12:23:54.523Z,3.47
2024-05-09T12:25:26.643Z,3.45
2024-05-09T12:26:59.080Z,3.75
2024-05-09T12:28:31.224Z,3.30
2024-05-09T12:30:04.617Z,3.15
2024-05-09T12:31:39.139Z,3.33
2024-05-09T12:33:13.077Z,3.13
2024-05-09T12:34:45.702Z,3.00
2024-05-09T12:36:17.873Z,3.20
2024-05-09T12:37:49.975Z,3.03
2024-05-09T12:39:22.011Z,2.95
2024-05-09T12:40:54.488Z,3.03
2024-05-09T12:42:28.097Z,3.05
2024-05-09T12:44:01.944Z,3.35
2024-05-09T12:45:34.162Z,3.25
2024-05-09T12:47:06.260Z,3.00
2024-05-09T12:48:38.576Z,3.67
2024-05-09T12:50:21.778Z,3.28
2024-05-09T12:51:57.457Z,3.40
2024-05-09T12:53:29.480Z,3.17
2024-05-09T12:55:01.595Z,3.10
2024-05-09T12:56:33.809Z,4.00
2024-05-09T12:58:06.217Z,3.60
2024-05-09T12:59:38.406Z,3.58
2024-05-09T13:01:10.544Z,2.72
2024-05-09T13:02:42.682Z,3.78
2024-05-09T13:04:14.897Z,3.42
2024-05-09T13:05:47.316Z,3.70
2024-05-09T13:07:19.657Z,3.10
2024-05-09T13:08:51.923Z,4.40
2024-05-09T13:10:31.191Z,2.88
2024-05-09T13:12:05.737Z,3.53
2024-05-09T13:13:37.761Z,3.33
2024-05-09T13:15:09.768Z,2.60
2024-05-09T13:16:41.998Z,2.92
2024-05-09T13:18:14.191Z,3.00
2024-05-09T13:19:46.313Z,2.75
2024-05-09T13:21:18.326Z,2.95
2024-05-09T13:22:50.413Z,3.28
2024-05-09T13:24:22.451Z,3.30
2024-05-09T13:25:54.750Z,2.60
2024-05-09T13:27:26.838Z,2.80
2024-05-09T13:28:58.916Z,2.55
2024-05-09T13:30:39.130Z,3.50
2024-05-09T13:32:13.696Z,3.00
2024-05-09T13:33:45.995Z,3.10
2024-05-09T13:35:18.600Z,4.32
2024-05-09T13:36:50.769Z,2.63
2024-05-09T13:38:22.931Z,2.83
2024-05-09T13:39:55.169Z,3.10
2024-05-09T13:41:27.256Z,3.50
2024-05-09T13:42:59.455Z,3.17
2024-05-09T13:44:31.672Z,3.08
2024-05-09T13:46:04.258Z,3.63
2024-05-09T13:47:36.602Z,2.80
2024-05-09T13:49:11.755Z,4.97
2024-05-09T13:50:44.490Z,3.30
2024-05-09T13:52:17.161Z,3.45
2024-05-09T13:53:49.352Z,3.33
2024-05-09T13:55:21.423Z,3.03
2024-05-09T13:56:53.753Z,3.47
2024-05-09T13:58:26.298Z,2.45
2024-05-09T13:59:58.425Z,2.83
2024-05-09T14:01:30.574Z,2.65
2024-05-09T14:03:02.831Z,3.30
2024-05-09T14:04:35.041Z,2.40
2024-05-09T14:06:10.533Z,2.78
2024-05-09T14:07:44.345Z,3.53
2024-05-09T14:09:16.686Z,3.28
2024-05-09T14:10:49.386Z,2.78
2024-05-09T14:12:21.675Z,3.10
2024-05-09T14:13:53.786Z,3.65
2024-05-09T14:15:25.824Z,3.45
2024-05-09T14:16:57.920Z,2.90
2024-05-09T14:18:30.249Z,3.78
2024-05-09T14:20:02.998Z,3.00
2024-05-09T14:21:35.326Z,2.60
2024-05-09T14:23:07.396Z,2.88
2024-05-09T14:24:39.692Z,3.00
2024-05-09T14:26:12.007Z,3.08
2024-05-09T14:27:44.223Z,2.80
2024-05-09T14:29:16.218Z,2.78
2024-05-09T14:30:48.439Z,2.97
2024-05-09T14:32:20.748Z,2.90
2024-05-09T14:33:53.165Z,3.83
2024-05-09T14:35:25.289Z,3.47
2024-05-09T14:36:58.832Z,3.40
2024-05-09T14:38:30.958Z,3.05
2024-05-09T14:40:06.902Z,3.75
2024-05-09T14:41:40.417Z,3.53
2024-05-09T14:43:14.626Z,5.22
2024-05-09T14:44:47.153Z,3.55
2024-05-09T14:46:19.755Z,4.07
2024-05-09T14:47:51.941Z,3.25
2024-05-09T14:49:24.111Z,3.00
2024-05-09T14:50:56.111Z,3.22
2024-05-09T14:52:28.363Z,2.65
2024-05-09T14:54:00.362Z,2.80
2024-05-09T14:55:32.451Z,2.67
2024-05-09T14:57:05.132Z,2.95
2024-05-09T14:58:37.267Z,3.00
2024-05-09T15:00:17.430Z,3.22
2024-05-09T15:01:57.940Z,3.10
2024-05-09T15:03:30.130Z,4.78
2024-05-09T15:05:04.172Z,3.35
2024-05-09T15:06:40.634Z,3.55
2024-05-09T15:08:12.964Z,5.05
2024-05-09T15:09:45.125Z,5.15
2024-05-09T15:11:17.254Z,5.25
2024-05-09T15:12:49.438Z,4.70
2024-05-09T15:14:23.245Z,5.55
2024-05-09T15:15:55.833Z,6.05
2024-05-09T15:17:28.424Z,5.15
2024-05-09T15:19:01.161Z,8.85
2024-05-09T15:20:36.368Z,4.78
2024-05-09T15:22:11.690Z,7.07
2024-05-09T15:25:15.993Z,5.40
2024-05-09T15:26:48.190Z,6.10
2024-05-09T15:28:20.612Z,4.63
2024-05-09T15:29:52.780Z,5.53
2024-05-09T15:31:24.933Z,6.63
2024-05-09T15:32:57.070Z,5.05
2024-05-09T15:34:29.961Z,5.20
2024-05-09T15:36:02.319Z,3.92
2024-05-09T15:37:34.444Z,6.68
2024-05-09T15:39:06.597Z,5.97
2024-05-09T15:40:40.568Z,6.88
2024-05-09T15:42:13.300Z,5.85
2024-05-09T15:43:45.328Z,5.18
2024-05-09T15:45:17.971Z,5.45
2024-05-09T15:46:51.559Z,4.75
2024-05-09T15:48:23.846Z,5.53
2024-05-09T15:49:56.071Z,4.80
2024-05-09T15:51:28.177Z,5.32
2024-05-09T15:53:00.234Z,4.57
2024-05-09T15:54:32.331Z,5.57
2024-05-09T15:56:04.860Z,4.55
2024-05-09T15:57:37.020Z,5.05
2024-05-09T15:59:09.143Z,5.55
2024-05-09T16:00:44.317Z,4.45
2024-05-09T16:02:18.153Z,4.70
2024-05-09T16:03:50.664Z,3.65
2024-05-09T16:05:23.597Z,3.40
2024-05-09T16:06:56.060Z,3.95
2024-05-09T16:08:28.242Z,4.15
2024-05-09T16:10:00.845Z,3.42
2024-05-09T16:11:32.897Z,2.80
2024-05-09T16:13:05.094Z,3.75
2024-05-09T16:14:37.174Z,3.85
2024-05-09T16:16:09.911Z,4.13
2024-05-09T16:17:42.170Z,3.67
2024-05-09T16:19:14.675Z,3.28
2024-05-09T16:20:49.466Z,3.85
2024-05-09T16:22:22.543Z,4.30
2024-05-09T16:23:54.565Z,3.28
2024-05-09T16:25:26.660Z,3.88
2024-05-09T16:26:58.897Z,3.40
2024-05-09T16:28:31.046Z,3.80
2024-05-09T16:30:07.230Z,2.60
2024-05-09T16:31:43.840Z,2.50
2024-05-09T16:34:51.314Z,2.85
2024-05-09T16:36:23.448Z,3.53
2024-05-09T16:37:55.683Z,3.10
2024-05-09T16:39:27.722Z,3.35
2024-05-09T16:40:59.866Z,3.33
2024-05-09T16:42:31.996Z,3.35
2024-05-09T16:44:04.211Z,4.25
2024-05-09T16:45:37.616Z,3.40
2024-05-09T16:47:09.876Z,3.40
2024-05-09T16:48:45.628Z,3.70
2024-05-09T16:50:25.772Z,3.45
2024-05-09T16:52:01.202Z,3.17
2024-05-09T16:53:33.225Z,3.00
2024-05-09T16:55:05.477Z,3.08
2024-05-09T16:56:37.687Z,3.05
2024-05-09T16:58:12.281Z,2.95
2024-05-09T16:59:45.150Z,3.20
2024-05-09T17:01:17.316Z,3.03
2024-05-09T17:02:50.292Z,2.67
2024-05-09T17:04:22.567Z,2.70
2024-05-09T17:05:54.993Z,2.40
2024-05-09T17:07:27.607Z,2.83
2024-05-09T17:09:08.288Z,2.90
2024-05-09T17:10:45.795Z,2.50
2024-05-09T17:12:18.204Z,2.33
2024-05-09T17:13:50.240Z,2.83
2024-05-09T17:15:22.318Z,2.55
2024-05-09T17:16:54.795Z,2.30
2024-05-09T17:18:27.803Z,2.47
2024-05-09T17:19:59.929Z,2.90
2024-05-09T17:21:32.040Z,2.17
2024-05-09T17:23:06.228Z,2.55
2024-05-09T17:24:38.724Z,2.60
2024-05-09T17:26:11.150Z,2.47
2024-05-09T17:27:43.486Z,2.60
2024-05-09T17:29:15.657Z,2.63
2024-05-09T17:30:48.546Z,2.50
2024-05-09T17:32:20.674Z,2.38
2024-05-09T17:33:53.161Z,2.20
2024-05-09T17:35:25.417Z,2.70
2024-05-09T17:36:57.584Z,2.70
2024-05-09T17:38:31.006Z,2.75
2024-05-09T17:40:16.619Z,2.30
2024-05-09T17:41:49.236Z,2.33
2024-05-09T17:43:21.606Z,2.30
2024-05-09T17:44:53.732Z,2.28
2024-05-09T17:46:25.968Z,2.55
2024-05-09T17:47:58.501Z,2.30
2024-05-09T17:49:30.849Z,2.28
2024-05-09T17:51:02.997Z,2.08
2024-05-09T17:52:35.018Z,2.25
2024-05-09T17:54:07.133Z,2.50
2024-05-09T17:55:40.493Z,2.55
2024-05-09T17:57:12.791Z,2.15
2024-05-09T17:58:46.374Z,2.17
2024-05-09T18:00:28.619Z,2.65
2024-05-09T18:02:08.934Z,2.33
2024-05-09T18:03:42.893Z,2.70
2024-05-09T18:05:15.393Z,2.63
2024-05-09T18:06:47.693Z,2.63
2024-05-09T18:08:19.848Z,2.65
2024-05-09T18:09:51.884Z,2.28
2024-05-09T18:11:25.342Z,2.80
2024-05-09T18:12:57.425Z,2.40
2024-05-09T18:14:29.554Z,2.53
2024-05-09T18:16:01.737Z,2.50
2024-05-09T18:17:34.707Z,2.15
2024-05-09T18:19:06.896Z,2.40
2024-05-09T18:20:44.007Z,2.33
2024-05-09T18:22:18.000Z,2.30
2024-05-09T18:23:52.049Z,2.45
2024-05-09T18:25:24.444Z,2.10
2024-05-09T18:26:56.553Z,2.63
2024-05-09T18:28:28.813Z,2.67
2024-05-09T18:30:01.047Z,2.70
2024-05-09T18:31:33.175Z,2.30
2024-05-09T18:33:07.672Z,2.78
2024-05-09T18:34:40.463Z,2.55
2024-05-09T18:36:12.727Z,2.42
2024-05-09T18:37:44.844Z,2.30
2024-05-09T18:39:17.188Z,2.40
2024-05-09T18:40:49.800Z,2.60
2024-05-09T18:42:22.136Z,2.50
2024-05-09T18:43:55.119Z,2.63
2024-05-09T18:45:28.647Z,2.65
2024-05-09T18:47:00.873Z,2.70
2024-05-09T18:48:33.794Z,2.40
2024-05-09T18:50:11.963Z,2.80
2024-05-09T18:51:49.553Z,2.35
2024-05-09T18:53:21.613Z,2.50
2024-05-09T18:54:53.712Z,2.50
2024-05-09T18:56:26.924Z,2.38
2024-05-09T18:57:59.108Z,2.53
2024-05-09T18:59:31.187Z,2.72
2024-05-09T19:01:03.583Z,2.60
2024-05-09T19:02:35.878Z,2.53
2024-05-09T19:04:08.317Z,2.70
2024-05-09T19:05:42.393Z,2.70
2024-05-09T19:07:16.992Z,2.80
2024-05-09T19:08:49.091Z,2.50
2024-05-09T19:10:23.063Z,2.47
2024-05-09T19:12:03.103Z,2.80
2024-05-09T19:13:35.207Z,2.83
2024-05-09T19:15:07.906Z,2.60
2024-05-09T19:16:41.346Z,2.58
2024-05-09T19:18:14.431Z,2.72
2024-05-09T19:19:48.795Z,2.75
2024-05-09T19:21:20.972Z,2.42
2024-05-09T19:22:53.040Z,2.65
2024-05-09T19:24:25.038Z,3.03
2024-05-09T19:25:57.275Z,2.70
2024-05-09T19:27:29.301Z,2.58
2024-05-09T19:29:01.406Z,2.55
2024-05-09T19:30:39.455Z,3.00
2024-05-09T19:32:14.142Z,2.53
2024-05-09T19:33:46.267Z,2.50
2024-05-09T19:35:18.390Z,2.75
2024-05-09T19:36:50.769Z,3.03
2024-05-09T19:38:22.991Z,2.90
2024-05-09T19:39:55.352Z,2.45
2024-05-09T19:41:27.453Z,2.65
2024-05-09T19:42:59.725Z,3.00
2024-05-09T19:44:31.906Z,2.35
2024-05-09T19:46:04.334Z,2.90
2024-05-09T19:47:36.602Z,2.50
2024-05-09T19:49:09.034Z,2.47
2024-05-09T19:50:44.149Z,2.97
2024-05-09T19:52:17.168Z,3.22
2024-05-09T19:53:50.638Z,3.20
2024-05-09T19:55:22.696Z,4.05
2024-05-09T19:56:56.543Z,3.78
2024-05-09T19:58:28.731Z,4.47
2024-05-09T20:00:00.902Z,5.10
2024-05-09T20:01:33.171Z,6.03
2024-05-09T20:03:06.113Z,6.97
2024-05-09T20:04:38.963Z,6.68
2024-05-09T20:06:11.178Z,7.53
2024-05-09T20:07:43.171Z,7.22
2024-05-09T20:09:15.593Z,6.55
2024-05-09T20:10:47.848Z,6.13
2024-05-09T20:12:20.032Z,5.30
2024-05-09T20:13:52.324Z,5.05
2024-05-09T20:15:24.341Z,4.43
2024-05-09T20:16:57.147Z,4.13
2024-05-09T20:18:29.479Z,4.43
2024-05-09T20:20:02.067Z,4.28
2024-05-09T20:21:34.544Z,3.67
2024-05-09T20:23:06.659Z,3.40
2024-05-09T20:24:38.808Z,3.40
2024-05-09T20:26:10.843Z,3.50
2024-05-09T20:27:42.983Z,3.03
2024-05-09T20:29:15.002Z,3.10
2024-05-09T20:30:47.297Z,3.38
2024-05-09T20:32:19.358Z,3.05
2024-05-09T20:33:51.543Z,3.28
2024-05-09T20:35:23.612Z,3.28
2024-05-09T20:36:55.748Z,3.15
2024-05-09T20:38:27.795Z,3.25
2024-05-09T20:39:59.907Z,3.03
2024-05-09T20:41:33.761Z,3.00
2024-05-09T20:43:10.858Z,3.15
2024-05-09T20:44:43.184Z,2.92
2024-05-09T20:46:15.676Z,2.97
2024-05-09T20:47:50.075Z,2.92
2024-05-09T20:49:23.608Z,2.40
2024-05-09T20:50:55.733Z,2.80